createdAt,value
2016-07-29T00:00:26.630Z,0
2016-07-29T00:01:26.638Z,0
2016-07-29T00:02:26.639Z,0
2016-07-29T00:03:26.624Z,0
2016-07-29T00:04:26.626Z,0
2016-07-29T00:05:26.634Z,0
2016-07-29T00:06:26.621Z,0
2016-07-29T00:07:26.613Z,0
2016-07-29T00:08:26.614Z,0
2016-07-29T00:09:26.615Z,0
2016-07-29T00:10:26.622Z,0
2016-07-29T00:11:26.616Z,0
2016-07-29T00:12:26.623Z,0
2016-07-29T00:13:26.613Z,0
2016-07-29T00:14:26.609Z,0
2016-07-29T00:15:26.613Z,0
2016-07-29T00:16:26.625Z,0
2016-07-29T00:17:26.597Z,0
2016-07-29T00:18:26.608Z,0
2016-07-29T00:19:26.605Z,0
2016-07-29T00:20:26.613Z,0
2016-07-29T00:21:27.305Z,0
2016-07-29T00:22:26.596Z,0
2016-07-29T00:23:26.607Z,0
2016-07-29T00:24:26.596Z,0
2016-07-29T00:25:27.299Z,0
2016-07-29T00:26:26.584Z,0
2016-07-29T00:27:26.591Z,0
2016-07-29T00:28:26.594Z,0
2016-07-29T00:29:26.596Z,0
2016-07-29T00:30:26.593Z,0
2016-07-29T00:31:26.591Z,0
2016-07-29T00:32:26.589Z,0
2016-07-29T00:33:26.579Z,0
2016-07-29T00:34:26.588Z,0
2016-07-29T00:35:26.583Z,0
2016-07-29T00:36:28.162Z,0
2016-07-29T00:38:28.912Z,0
2016-07-29T00:39:29.657Z,0
2016-07-29T00:40:26.998Z,0
2016-07-29T00:41:26.574Z,0
2016-07-29T00:42:27.210Z,0
2016-07-29T00:43:26.567Z,0
2016-07-29T00:44:26.573Z,0
2016-07-29T00:45:26.572Z,0
2016-07-29T00:46:29.225Z,0
2016-07-29T00:47:29.067Z,0
2016-07-29T00:48:28.252Z,0
2016-07-29T00:49:28.323Z,0
2016-07-29T00:50:28.081Z,0
2016-07-29T00:51:27.314Z,0
2016-07-29T00:52:26.560Z,0
2016-07-29T00:53:26.568Z,0
2016-07-29T00:54:26.569Z,0
2016-07-29T00:55:26.558Z,0
2016-07-29T00:56:26.557Z,0
2016-07-29T00:57:26.562Z,0
2016-07-29T00:58:26.558Z,0
2016-07-29T00:59:27.458Z,0
2016-07-29T01:00:42.459Z,0
2016-07-29T01:01:28.454Z,0
2016-07-29T01:03:27.301Z,0
2016-07-29T01:04:26.894Z,0
2016-07-29T01:05:26.546Z,0
2016-07-29T01:06:26.540Z,0
2016-07-29T01:07:26.530Z,0
2016-07-29T01:08:26.535Z,0
2016-07-29T01:09:41.810Z,0
2016-07-29T01:10:27.199Z,0
2016-07-29T01:11:27.685Z,0
2016-07-29T01:12:41.698Z,0
2016-07-29T01:13:27.437Z,0
2016-07-29T01:14:26.722Z,0
2016-07-29T01:15:26.525Z,0
2016-07-29T01:16:26.528Z,0
2016-07-29T01:17:26.529Z,0
2016-07-29T01:18:26.516Z,0
2016-07-29T01:19:26.520Z,0
2016-07-29T01:20:26.521Z,0
2016-07-29T01:21:26.521Z,0
2016-07-29T01:22:26.516Z,0
2016-07-29T01:23:27.212Z,0
2016-07-29T01:24:26.508Z,0
2016-07-29T01:25:26.513Z,0
2016-07-29T01:26:27.222Z,0
2016-07-29T01:27:26.506Z,0
2016-07-29T01:28:26.528Z,0
2016-07-29T01:29:26.503Z,0
2016-07-29T01:30:26.511Z,0
2016-07-29T01:31:26.502Z,0
2016-07-29T01:32:26.514Z,0
2016-07-29T01:33:26.506Z,0
2016-07-29T01:34:26.495Z,0
2016-07-29T01:35:26.503Z,0
2016-07-29T01:36:26.487Z,0
2016-07-29T01:37:26.507Z,0
2016-07-29T01:38:26.487Z,0
2016-07-29T01:39:26.486Z,0
2016-07-29T01:40:26.491Z,0
2016-07-29T01:41:26.481Z,0
2016-07-29T01:42:26.488Z,0
2016-07-29T01:43:26.492Z,0
2016-07-29T01:44:26.476Z,0
2016-07-29T01:45:26.479Z,0
2016-07-29T01:46:26.478Z,0
2016-07-29T01:47:26.498Z,0
2016-07-29T01:48:26.477Z,0
2016-07-29T01:49:26.469Z,0
2016-07-29T01:50:26.473Z,0
2016-07-29T01:51:26.518Z,0
2016-07-29T01:52:26.471Z,0
2016-07-29T01:53:26.467Z,0
2016-07-29T01:54:26.462Z,0
2016-07-29T01:55:29.282Z,0
2016-07-29T01:56:29.507Z,0
2016-07-29T01:57:29.297Z,0
2016-07-29T01:58:27.609Z,0
2016-07-29T01:59:27.686Z,0
2016-07-29T02:00:26.817Z,0
2016-07-29T02:01:26.451Z,0
2016-07-29T02:02:26.446Z,0
2016-07-29T02:03:26.454Z,0
2016-07-29T02:05:31.420Z,0
2016-07-29T02:06:28.031Z,0
2016-07-29T02:07:26.836Z,0
2016-07-29T02:08:27.373Z,0
2016-07-29T02:09:26.902Z,0
2016-07-29T02:10:26.447Z,0
2016-07-29T02:11:26.450Z,0
2016-07-29T02:12:26.435Z,0
2016-07-29T02:13:26.440Z,0
2016-07-29T02:14:26.444Z,0
2016-07-29T02:15:26.437Z,0
2016-07-29T02:16:26.436Z,0
2016-07-29T02:18:27.892Z,0
2016-07-29T02:19:27.022Z,0
2016-07-29T02:20:41.598Z,0
2016-07-29T02:21:26.928Z,0
2016-07-29T02:22:27.040Z,0
2016-07-29T02:23:26.426Z,0
2016-07-29T02:24:26.420Z,0
2016-07-29T02:25:26.423Z,0
2016-07-29T02:26:26.419Z,0
2016-07-29T02:27:27.918Z,0
2016-07-29T02:28:27.516Z,0
2016-07-29T02:30:26.665Z,0
2016-07-29T02:33:26.405Z,0
2016-07-29T02:34:26.414Z,0
2016-07-29T02:35:26.412Z,0
2016-07-29T02:36:26.408Z,0
2016-07-29T02:37:26.406Z,0
2016-07-29T02:38:26.401Z,0
2016-07-29T02:39:26.403Z,0
2016-07-29T02:40:26.396Z,0
2016-07-29T02:41:26.409Z,0
2016-07-29T02:42:26.394Z,0
2016-07-29T02:43:26.398Z,0
2016-07-29T02:44:26.388Z,0
2016-07-29T02:45:26.395Z,0
2016-07-29T02:46:26.390Z,0
2016-07-29T02:48:26.402Z,0
2016-07-29T02:49:26.392Z,0
2016-07-29T02:50:26.385Z,0
2016-07-29T02:51:26.384Z,0
2016-07-29T02:52:26.390Z,0
2016-07-29T02:53:26.382Z,0
2016-07-29T02:54:26.401Z,0
2016-07-29T02:55:26.379Z,0
2016-07-29T02:56:26.386Z,0
2016-07-29T02:57:26.382Z,0
2016-07-29T02:58:26.377Z,0
2016-07-29T02:59:26.371Z,0
2016-07-29T03:00:26.372Z,0
2016-07-29T03:01:26.374Z,0
2016-07-29T03:03:26.374Z,0
2016-07-29T03:04:26.372Z,0
2016-07-29T03:05:26.366Z,0
2016-07-29T03:06:26.371Z,0
2016-07-29T03:07:26.365Z,0
2016-07-29T03:08:26.363Z,0
2016-07-29T03:09:26.357Z,0
2016-07-29T03:10:26.366Z,0
2016-07-29T03:11:26.350Z,0
2016-07-29T03:12:26.364Z,0
2016-07-29T03:13:28.326Z,0
2016-07-29T03:14:27.887Z,0
2016-07-29T03:15:28.634Z,0
2016-07-29T03:16:27.711Z,0
2016-07-29T03:18:26.455Z,0
2016-07-29T03:19:26.353Z,0
2016-07-29T03:20:26.340Z,0
2016-07-29T03:21:26.349Z,0
2016-07-29T03:22:29.403Z,5
2016-07-29T03:23:29.465Z,5
2016-07-29T03:24:29.198Z,5
2016-07-29T03:25:26.695Z,5
2016-07-29T03:26:28.198Z,10
2016-07-29T03:27:26.436Z,10
2016-07-29T03:28:26.379Z,10
2016-07-29T03:29:26.332Z,15
2016-07-29T03:30:26.460Z,15
2016-07-29T03:31:26.334Z,15
2016-07-29T03:32:26.328Z,15
2016-07-29T03:33:26.337Z,15
2016-07-29T03:34:26.337Z,15
2016-07-29T03:35:26.323Z,15
2016-07-29T03:36:42.147Z,20
2016-07-29T03:37:27.673Z,20
2016-07-29T03:38:27.731Z,20
2016-07-29T03:39:27.134Z,20
2016-07-29T03:41:26.324Z,25
2016-07-29T03:42:26.310Z,25
2016-07-29T03:43:26.310Z,30
2016-07-29T03:44:26.317Z,30
2016-07-29T03:46:27.015Z,30
2016-07-29T03:49:26.658Z,35
2016-07-29T03:50:26.909Z,35
2016-07-29T03:51:26.749Z,35
2016-07-29T03:52:26.302Z,35
2016-07-29T03:53:26.296Z,40
2016-07-29T03:54:26.308Z,40
2016-07-29T03:55:26.301Z,40
2016-07-29T03:56:26.294Z,40
2016-07-29T03:57:26.292Z,40
2016-07-29T03:58:26.294Z,40
2016-07-29T03:59:26.292Z,35
2016-07-29T04:00:26.291Z,35
2016-07-29T04:01:26.283Z,35
2016-07-29T04:02:26.306Z,35
2016-07-29T04:03:26.295Z,35
2016-07-29T04:04:26.290Z,35
2016-07-29T04:05:26.281Z,35
2016-07-29T04:06:26.274Z,35
2016-07-29T04:07:26.289Z,40
2016-07-29T04:08:26.277Z,40
2016-07-29T04:09:26.273Z,40
2016-07-29T04:10:26.286Z,40
2016-07-29T04:11:26.279Z,40
2016-07-29T04:12:26.277Z,40
2016-07-29T04:13:26.281Z,40
2016-07-29T04:14:26.278Z,45
2016-07-29T04:15:26.267Z,45
2016-07-29T04:16:26.273Z,45
2016-07-29T04:17:26.270Z,45
2016-07-29T04:18:26.266Z,50
2016-07-29T04:19:26.268Z,50
2016-07-29T04:20:26.266Z,55
2016-07-29T04:21:26.273Z,60
2016-07-29T04:22:26.276Z,60
2016-07-29T04:23:26.476Z,65
2016-07-29T04:24:26.278Z,70
2016-07-29T04:25:26.264Z,70
2016-07-29T04:26:26.258Z,75
2016-07-29T04:27:26.268Z,80
2016-07-29T04:28:26.265Z,85
2016-07-29T04:29:26.261Z,90
2016-07-29T04:30:26.250Z,100
2016-07-29T04:31:30.135Z,105
2016-07-29T04:32:27.920Z,110
2016-07-29T04:33:28.195Z,120
2016-07-29T04:34:28.277Z,120
2016-07-29T04:35:27.186Z,120
2016-07-29T04:36:26.259Z,120
2016-07-29T04:37:26.364Z,125
2016-07-29T04:38:26.260Z,125
2016-07-29T04:39:26.245Z,125
2016-07-29T04:40:28.364Z,130
2016-07-29T04:41:27.863Z,125
2016-07-29T04:42:28.783Z,130
2016-07-29T04:43:27.407Z,130
2016-07-29T04:44:26.760Z,135
2016-07-29T04:45:26.947Z,135
2016-07-29T04:46:26.806Z,135
2016-07-29T04:47:26.236Z,130
2016-07-29T04:48:26.431Z,130
2016-07-29T04:49:26.248Z,130
2016-07-29T04:50:26.241Z,135
2016-07-29T04:51:26.439Z,130
2016-07-29T04:52:26.236Z,125
2016-07-29T04:53:26.235Z,125
2016-07-29T04:54:27.840Z,125
2016-07-29T04:55:28.337Z,130
2016-07-29T04:56:27.243Z,135
2016-07-29T04:57:27.545Z,140
2016-07-29T04:58:41.847Z,145
2016-07-29T04:59:26.843Z,150
2016-07-29T05:00:26.239Z,160
2016-07-29T05:01:26.236Z,165
2016-07-29T05:02:26.336Z,175
2016-07-29T05:03:26.280Z,180
2016-07-29T05:04:26.333Z,190
2016-07-29T05:06:41.500Z,195
2016-07-29T05:07:26.242Z,200
2016-07-29T05:08:27.426Z,235
2016-07-29T05:09:26.229Z,210
2016-07-29T05:10:26.276Z,230
2016-07-29T05:11:26.229Z,230
2016-07-29T05:12:26.930Z,225
2016-07-29T05:13:26.232Z,200
2016-07-29T05:14:26.238Z,205
2016-07-29T05:15:26.224Z,200
2016-07-29T05:16:26.231Z,210
2016-07-29T05:17:26.236Z,240
2016-07-29T05:18:26.229Z,290
2016-07-29T05:19:26.240Z,435
2016-07-29T05:20:26.222Z,425
2016-07-29T05:21:26.244Z,355
2016-07-29T05:22:26.228Z,315
2016-07-29T05:23:26.219Z,280
2016-07-29T05:24:26.223Z,305
2016-07-29T05:25:26.237Z,230
2016-07-29T05:26:26.238Z,240
2016-07-29T05:27:26.227Z,275
2016-07-29T05:28:26.236Z,330
2016-07-29T05:29:26.231Z,430
2016-07-29T05:30:26.231Z,620
2016-07-29T05:31:26.230Z,600
2016-07-29T05:32:26.243Z,795
2016-07-29T05:33:28.336Z,765
2016-07-29T05:34:26.232Z,725
2016-07-29T05:35:26.241Z,750
2016-07-29T05:36:26.237Z,635
2016-07-29T05:37:26.249Z,760
2016-07-29T05:38:26.245Z,820
2016-07-29T05:39:26.257Z,860
2016-07-29T05:40:26.244Z,865
2016-07-29T05:41:26.272Z,870
2016-07-29T05:42:26.266Z,860
2016-07-29T05:43:26.264Z,880
2016-07-29T05:44:26.264Z,905
2016-07-29T05:45:26.282Z,930
2016-07-29T05:46:26.282Z,955
2016-07-29T05:47:26.282Z,965
2016-07-29T05:48:26.301Z,960
2016-07-29T05:49:26.300Z,975
2016-07-29T05:50:28.347Z,1035
2016-07-29T05:51:27.555Z,1105
2016-07-29T05:52:28.751Z,1135
2016-07-29T05:53:26.416Z,1125
2016-07-29T05:54:26.353Z,1115
2016-07-29T05:55:27.130Z,1095
2016-07-29T05:56:26.365Z,1100
2016-07-29T05:57:26.368Z,1105
2016-07-29T05:58:26.378Z,1110
2016-07-29T05:59:29.777Z,1085
2016-07-29T06:00:28.227Z,1095
2016-07-29T06:01:27.985Z,1140
2016-07-29T06:02:28.259Z,1165
2016-07-29T06:04:27.780Z,1155
2016-07-29T06:05:26.438Z,1155
2016-07-29T06:06:26.543Z,1190
2016-07-29T06:07:26.467Z,1235
2016-07-29T06:08:26.475Z,1260
2016-07-29T06:09:26.495Z,1270
2016-07-29T06:10:26.503Z,1270
2016-07-29T06:11:26.525Z,1240
2016-07-29T06:12:26.522Z,1195
2016-07-29T06:13:41.556Z,1165
2016-07-29T06:14:42.268Z,1175
2016-07-29T06:15:27.008Z,1210
2016-07-29T06:17:27.236Z,1365
2016-07-29T06:18:26.613Z,1505
2016-07-29T06:19:26.670Z,1495
2016-07-29T06:20:26.632Z,1435
2016-07-29T06:21:26.637Z,1550
2016-07-29T06:22:42.024Z,1500
2016-07-29T06:23:27.681Z,1205
2016-07-29T06:24:27.839Z,1475
2016-07-29T06:25:27.793Z,1185
2016-07-29T06:26:27.858Z,1040
2016-07-29T06:27:27.015Z,1515
2016-07-29T06:28:26.741Z,1470
2016-07-29T06:29:26.755Z,795
2016-07-29T06:30:26.757Z,925
2016-07-29T06:31:26.782Z,560
2016-07-29T06:32:26.790Z,1355
2016-07-29T06:33:26.802Z,1430
2016-07-29T06:34:26.827Z,1455
2016-07-29T06:35:26.841Z,1045
2016-07-29T06:36:26.851Z,625
2016-07-29T06:37:26.865Z,1635
2016-07-29T06:38:26.879Z,1765
2016-07-29T06:39:26.896Z,1745
2016-07-29T06:40:26.916Z,1720
2016-07-29T06:41:26.934Z,1005
2016-07-29T06:42:26.939Z,805
2016-07-29T06:43:26.950Z,1350
2016-07-29T06:44:26.963Z,1900
2016-07-29T06:45:26.970Z,840
2016-07-29T06:46:26.994Z,960
2016-07-29T06:47:27.003Z,805
2016-07-29T06:50:27.060Z,785
2016-07-29T06:51:27.161Z,1235
2016-07-29T06:52:27.076Z,1010
2016-07-29T06:53:27.090Z,750
2016-07-29T06:54:27.809Z,755
2016-07-29T06:55:27.115Z,755
2016-07-29T06:56:27.129Z,705
2016-07-29T06:57:27.146Z,700
2016-07-29T06:58:27.150Z,680
2016-07-29T06:59:27.177Z,615
2016-07-29T07:00:27.187Z,620
2016-07-29T07:01:27.195Z,595
2016-07-29T07:02:27.217Z,600
2016-07-29T07:04:27.226Z,515
2016-07-29T07:05:27.238Z,585
2016-07-29T07:06:27.253Z,640
2016-07-29T07:07:27.261Z,650
2016-07-29T07:08:30.246Z,680
2016-07-29T07:09:29.160Z,725
2016-07-29T07:10:29.258Z,780
2016-07-29T07:11:27.863Z,960
2016-07-29T07:12:28.280Z,1290
2016-07-29T07:13:27.662Z,980
2016-07-29T07:14:27.348Z,880
2016-07-29T07:15:27.395Z,1185
2016-07-29T07:16:27.397Z,755
2016-07-29T07:19:28.598Z,750
2016-07-29T07:20:27.690Z,755
2016-07-29T07:21:28.566Z,815
2016-07-29T07:22:28.613Z,745
2016-07-29T07:23:27.850Z,715
2016-07-29T07:24:27.454Z,815
2016-07-29T07:25:27.455Z,825
2016-07-29T07:26:27.472Z,970
2016-07-29T07:27:27.476Z,1060
2016-07-29T07:28:27.480Z,1025
2016-07-29T07:29:27.497Z,1175
2016-07-29T07:30:27.503Z,745
2016-07-29T07:31:28.815Z,785
2016-07-29T07:32:42.444Z,770
2016-07-29T07:35:27.768Z,1095
2016-07-29T07:36:27.571Z,980
2016-07-29T07:37:27.570Z,955
2016-07-29T07:38:27.577Z,965
2016-07-29T07:39:27.599Z,955
2016-07-29T07:40:44.684Z,1005
2016-07-29T07:41:29.165Z,1145
2016-07-29T07:42:28.469Z,955
2016-07-29T07:43:43.410Z,1245
2016-07-29T07:44:27.895Z,910
2016-07-29T07:45:28.404Z,1245
2016-07-29T07:46:27.911Z,1580
2016-07-29T07:47:27.702Z,900
2016-07-29T07:49:28.387Z,1000
2016-07-29T07:50:27.715Z,825
2016-07-29T07:51:27.761Z,850
2016-07-29T07:52:27.730Z,810
2016-07-29T07:53:27.734Z,815
2016-07-29T07:54:27.750Z,925
2016-07-29T07:55:27.757Z,740
2016-07-29T07:56:27.774Z,700
2016-07-29T07:57:27.786Z,705
2016-07-29T07:58:27.790Z,830
2016-07-29T07:59:27.796Z,1240
2016-07-29T08:00:27.811Z,870
2016-07-29T08:01:27.821Z,760
2016-07-29T08:02:27.841Z,860
2016-07-29T08:03:27.844Z,740
2016-07-29T08:04:27.847Z,755
2016-07-29T08:05:27.855Z,675
2016-07-29T08:06:27.875Z,765
2016-07-29T08:07:27.878Z,875
2016-07-29T08:08:27.887Z,950
2016-07-29T08:09:27.901Z,835
2016-07-29T08:10:27.926Z,930
2016-07-29T08:11:27.922Z,945
2016-07-29T08:12:27.927Z,1810
2016-07-29T08:13:27.939Z,1020
2016-07-29T08:14:27.946Z,930
2016-07-29T08:15:27.962Z,630
2016-07-29T08:16:27.980Z,635
2016-07-29T08:17:27.977Z,705
2016-07-29T08:18:28.001Z,750
2016-07-29T08:19:27.997Z,950
2016-07-29T08:20:28.002Z,1000
2016-07-29T08:21:28.034Z,1120
2016-07-29T08:22:28.023Z,1145
2016-07-29T08:23:28.054Z,775
2016-07-29T08:24:28.047Z,915
2016-07-29T08:25:28.049Z,960
2016-07-29T08:27:32.459Z,880
2016-07-29T08:28:29.823Z,905
2016-07-29T08:29:29.414Z,915
2016-07-29T08:30:28.106Z,1480
2016-07-29T08:31:28.875Z,1030
2016-07-29T08:32:28.677Z,900
2016-07-29T08:33:28.149Z,1160
2016-07-29T08:34:28.142Z,1375
2016-07-29T08:35:31.512Z,1520
2016-07-29T08:36:31.499Z,1665
2016-07-29T08:37:29.627Z,1750
2016-07-29T08:38:29.703Z,1820
2016-07-29T08:39:28.638Z,1575
2016-07-29T08:40:29.963Z,810
2016-07-29T08:41:28.218Z,1015
2016-07-29T08:42:28.230Z,890
2016-07-29T08:43:28.240Z,1400
2016-07-29T08:44:28.258Z,1585
2016-07-29T08:45:28.272Z,950
2016-07-29T08:46:28.272Z,1505
2016-07-29T08:47:28.286Z,1170
2016-07-29T08:48:28.298Z,670
2016-07-29T08:49:30.578Z,620
2016-07-29T08:50:44.336Z,555
2016-07-29T08:51:29.183Z,585
2016-07-29T08:52:28.990Z,725
2016-07-29T08:53:28.611Z,865
2016-07-29T08:54:43.386Z,820
2016-07-29T08:55:29.023Z,910
2016-07-29T08:56:28.400Z,900
2016-07-29T08:57:28.405Z,760
2016-07-29T08:59:29.723Z,530
2016-07-29T09:01:29.389Z,345
2016-07-29T09:02:29.254Z,320
2016-07-29T09:03:28.572Z,335
2016-07-29T09:04:29.167Z,370
2016-07-29T09:05:28.482Z,380
2016-07-29T09:06:28.500Z,385
2016-07-29T09:07:29.199Z,370
2016-07-29T09:08:28.511Z,390
2016-07-29T09:09:28.526Z,455
2016-07-29T09:10:28.518Z,550
2016-07-29T09:11:28.540Z,565
2016-07-29T09:12:28.546Z,555
2016-07-29T09:13:28.569Z,590
2016-07-29T09:14:29.264Z,560
2016-07-29T09:15:28.569Z,530
2016-07-29T09:16:28.586Z,530
2016-07-29T09:17:29.315Z,560
2016-07-29T09:18:28.601Z,525
2016-07-29T09:19:28.602Z,480
2016-07-29T09:20:28.618Z,475
2016-07-29T09:21:28.628Z,480
2016-07-29T09:22:28.642Z,520
2016-07-29T09:23:28.644Z,585
2016-07-29T09:24:28.646Z,745
2016-07-29T09:25:28.663Z,815
2016-07-29T09:26:28.667Z,870
2016-07-29T09:27:28.676Z,895
2016-07-29T09:28:28.689Z,900
2016-07-29T09:29:28.692Z,885
2016-07-29T09:30:28.692Z,845
2016-07-29T09:31:28.709Z,750
2016-07-29T09:32:28.719Z,655
2016-07-29T09:33:28.720Z,610
2016-07-29T09:34:28.739Z,560
2016-07-29T09:35:28.740Z,570
2016-07-29T09:36:28.743Z,620
2016-07-29T09:37:28.764Z,565
2016-07-29T09:38:28.776Z,510
2016-07-29T09:39:28.773Z,480
2016-07-29T09:40:28.782Z,460
2016-07-29T09:41:28.781Z,500
2016-07-29T09:42:28.799Z,545
2016-07-29T09:43:28.805Z,555
2016-07-29T09:44:31.671Z,565
2016-07-29T09:47:31.391Z,470
2016-07-29T09:48:30.634Z,435
2016-07-29T09:49:29.701Z,405
2016-07-29T09:50:28.851Z,390
2016-07-29T09:51:28.922Z,385
2016-07-29T09:52:28.872Z,410
2016-07-29T09:53:29.576Z,520
2016-07-29T09:54:30.889Z,645
2016-07-29T09:55:32.212Z,640
2016-07-29T09:56:31.200Z,540
2016-07-29T09:57:30.974Z,500
2016-07-29T09:58:30.482Z,555
2016-07-29T09:59:29.487Z,670
2016-07-29T10:00:28.930Z,785
2016-07-29T10:01:28.942Z,855
2016-07-29T10:02:28.974Z,885
2016-07-29T10:03:29.650Z,900
2016-07-29T10:04:28.957Z,880
2016-07-29T10:05:28.979Z,785
2016-07-29T10:06:28.975Z,680
2016-07-29T10:08:44.160Z,540
2016-07-29T10:09:30.017Z,490
2016-07-29T10:10:44.532Z,510
2016-07-29T10:11:29.775Z,535
2016-07-29T10:13:29.032Z,575
2016-07-29T10:14:29.032Z,650
2016-07-29T10:15:29.058Z,655
2016-07-29T10:16:29.046Z,575
2016-07-29T10:17:45.333Z,495
2016-07-29T10:19:30.932Z,480
2016-07-29T10:20:29.337Z,535
2016-07-29T10:21:29.100Z,585
2016-07-29T10:22:29.999Z,570
2016-07-29T10:23:29.109Z,545
2016-07-29T10:24:29.819Z,515
2016-07-29T10:25:29.122Z,555
2016-07-29T10:26:29.834Z,550
2016-07-29T10:27:29.140Z,530
2016-07-29T10:28:29.150Z,545
2016-07-29T10:29:29.158Z,575
2016-07-29T10:30:29.177Z,590
2016-07-29T10:31:29.164Z,595
2016-07-29T10:32:29.181Z,540
2016-07-29T10:33:29.181Z,520
2016-07-29T10:34:29.193Z,505
2016-07-29T10:35:29.198Z,525
2016-07-29T10:36:29.212Z,510
2016-07-29T10:37:29.209Z,525
2016-07-29T10:38:29.238Z,535
2016-07-29T10:39:29.230Z,565
2016-07-29T10:40:29.244Z,560
2016-07-29T10:41:29.235Z,525
2016-07-29T10:42:29.260Z,505
2016-07-29T10:43:29.268Z,480
2016-07-29T10:44:29.272Z,455
2016-07-29T10:45:29.277Z,445
2016-07-29T10:46:29.287Z,470
2016-07-29T10:47:29.285Z,510
2016-07-29T10:48:29.295Z,595
2016-07-29T10:49:29.295Z,700
2016-07-29T10:50:29.323Z,690
2016-07-29T10:51:29.361Z,700
2016-07-29T10:52:29.338Z,680
2016-07-29T10:53:29.333Z,675
2016-07-29T10:54:29.344Z,685
2016-07-29T10:55:29.338Z,675
2016-07-29T10:56:29.355Z,630
2016-07-29T10:57:29.356Z,595
2016-07-29T10:58:29.358Z,540
2016-07-29T10:59:29.371Z,510
2016-07-29T11:00:29.377Z,555
2016-07-29T11:01:29.400Z,600
2016-07-29T11:02:29.398Z,585
2016-07-29T11:03:31.554Z,545
2016-07-29T11:04:31.282Z,560
2016-07-29T11:05:32.842Z,610
2016-07-29T11:06:30.953Z,620
2016-07-29T11:07:30.802Z,610
2016-07-29T11:08:29.753Z,565
2016-07-29T11:09:29.451Z,545
2016-07-29T11:10:29.459Z,545
2016-07-29T11:11:29.468Z,525
2016-07-29T11:12:31.826Z,520
2016-07-29T11:13:32.471Z,530
2016-07-29T11:14:32.802Z,570
2016-07-29T11:15:31.349Z,590
2016-07-29T11:16:31.633Z,585
2016-07-29T11:17:29.513Z,585
2016-07-29T11:18:29.929Z,585
2016-07-29T11:19:29.539Z,580
2016-07-29T11:20:29.543Z,635
2016-07-29T11:21:29.555Z,675
2016-07-29T11:22:29.550Z,615
2016-07-29T11:23:29.561Z,580
2016-07-29T11:24:29.569Z,560
2016-07-29T11:25:29.578Z,560
2016-07-29T11:27:45.418Z,475
2016-07-29T11:29:30.203Z,460
2016-07-29T11:30:30.575Z,450
2016-07-29T11:31:30.224Z,445
2016-07-29T11:32:30.337Z,440
2016-07-29T11:33:29.656Z,425
2016-07-29T11:34:29.647Z,460
2016-07-29T11:35:31.801Z,405
2016-07-29T11:36:44.827Z,330
2016-07-29T11:37:30.225Z,325
2016-07-29T11:38:30.174Z,315
2016-07-29T11:39:30.389Z,320
2016-07-29T11:40:29.687Z,310
2016-07-29T11:41:30.603Z,300
2016-07-29T11:42:29.706Z,290
2016-07-29T11:43:30.410Z,275
2016-07-29T11:44:29.726Z,270
2016-07-29T11:45:29.737Z,270
2016-07-29T11:46:29.747Z,270
2016-07-29T11:47:29.748Z,280
2016-07-29T11:48:29.759Z,290
2016-07-29T11:49:29.754Z,280
2016-07-29T11:50:29.772Z,280
2016-07-29T11:51:29.791Z,305
2016-07-29T11:52:29.788Z,295
2016-07-29T11:53:29.782Z,300
2016-07-29T11:54:29.800Z,310
2016-07-29T11:55:29.802Z,335
2016-07-29T11:56:29.825Z,360
2016-07-29T11:57:29.811Z,375
2016-07-29T11:58:29.820Z,390
2016-07-29T11:59:29.836Z,415
2016-07-29T12:00:29.833Z,400
2016-07-29T12:01:29.845Z,415
2016-07-29T12:02:30.537Z,425
2016-07-29T12:03:29.857Z,450
2016-07-29T12:04:29.844Z,465
2016-07-29T12:05:29.863Z,475
2016-07-29T12:06:29.876Z,445
2016-07-29T12:07:29.881Z,405
2016-07-29T12:08:29.888Z,400
2016-07-29T12:09:29.893Z,415
2016-07-29T12:10:29.906Z,475
2016-07-29T12:11:29.917Z,565
2016-07-29T12:12:29.918Z,540
2016-07-29T12:13:29.916Z,490
2016-07-29T12:14:29.920Z,470
2016-07-29T12:15:29.926Z,475
2016-07-29T12:16:29.947Z,470
2016-07-29T12:17:29.946Z,470
2016-07-29T12:18:29.953Z,480
2016-07-29T12:20:29.971Z,525
2016-07-29T12:21:31.893Z,550
2016-07-29T12:22:32.785Z,575
2016-07-29T12:23:34.102Z,590
2016-07-29T12:24:33.059Z,615
2016-07-29T12:25:30.950Z,645
2016-07-29T12:26:31.356Z,680
2016-07-29T12:27:30.673Z,705
2016-07-29T12:28:30.023Z,715
2016-07-29T12:29:30.024Z,705
2016-07-29T12:30:32.402Z,655
2016-07-29T12:31:32.339Z,620
2016-07-29T12:32:33.756Z,600
2016-07-29T12:33:33.215Z,590
2016-07-29T12:35:30.075Z,650
2016-07-29T12:36:30.081Z,635
2016-07-29T12:37:30.088Z,615
2016-07-29T12:38:30.096Z,595
2016-07-29T12:39:30.109Z,595
2016-07-29T12:40:30.119Z,600
2016-07-29T12:41:30.128Z,585
2016-07-29T12:42:30.139Z,545
2016-07-29T12:43:30.131Z,520
2016-07-29T12:44:45.618Z,540
2016-07-29T12:45:31.315Z,530
2016-07-29T12:47:30.531Z,515
2016-07-29T12:48:45.097Z,460
2016-07-29T12:50:30.198Z,470
2016-07-29T12:51:30.357Z,440
2016-07-29T12:52:30.216Z,435
2016-07-29T12:54:00.062Z,465
2016-07-29T12:54:31.237Z,460
2016-07-29T12:55:31.091Z,455
2016-07-29T12:56:30.890Z,445
2016-07-29T12:58:30.468Z,420
2016-07-29T12:59:30.975Z,430
2016-07-29T13:00:30.280Z,435
2016-07-29T13:01:30.380Z,435
2016-07-29T13:02:30.298Z,455
2016-07-29T13:03:30.301Z,470
2016-07-29T13:05:30.327Z,470
2016-07-29T13:06:31.028Z,505
2016-07-29T13:07:30.341Z,520
2016-07-29T13:08:30.337Z,545
2016-07-29T13:09:30.352Z,595
2016-07-29T13:10:30.358Z,635
2016-07-29T13:11:30.385Z,660
2016-07-29T13:12:30.374Z,680
2016-07-29T13:13:30.382Z,680
2016-07-29T13:14:31.096Z,680
2016-07-29T13:15:30.398Z,700
2016-07-29T13:16:30.409Z,715
2016-07-29T13:17:30.413Z,710
2016-07-29T13:18:30.428Z,685
2016-07-29T13:19:30.436Z,650
2016-07-29T13:20:30.437Z,655
2016-07-29T13:21:30.446Z,680
2016-07-29T13:22:30.465Z,710
2016-07-29T13:23:30.459Z,735
2016-07-29T13:24:30.481Z,760
2016-07-29T13:25:30.480Z,760
2016-07-29T13:26:30.484Z,735
2016-07-29T13:27:30.495Z,685
2016-07-29T13:28:30.504Z,605
2016-07-29T13:29:30.515Z,580
2016-07-29T13:30:30.531Z,560
2016-07-29T13:31:30.526Z,545
2016-07-29T13:32:30.538Z,530
2016-07-29T13:33:30.550Z,500
2016-07-29T13:34:30.558Z,490
2016-07-29T13:35:30.567Z,515
2016-07-29T13:36:30.568Z,515
2016-07-29T13:37:30.583Z,535
2016-07-29T13:38:30.588Z,575
2016-07-29T13:39:32.351Z,600
2016-07-29T13:40:32.995Z,610
2016-07-29T13:41:34.739Z,580
2016-07-29T13:42:31.400Z,550
2016-07-29T13:43:31.188Z,520
2016-07-29T13:44:31.867Z,490
2016-07-29T13:45:30.653Z,465
2016-07-29T13:46:30.667Z,455
2016-07-29T13:47:30.685Z,455
2016-07-29T13:48:32.926Z,470
2016-07-29T13:49:35.329Z,490
2016-07-29T13:50:33.842Z,530
2016-07-29T13:51:34.168Z,560
2016-07-29T13:52:31.265Z,595
2016-07-29T13:53:30.714Z,610
2016-07-29T13:54:30.770Z,600
2016-07-29T13:55:30.738Z,595
2016-07-29T13:56:30.743Z,605
2016-07-29T13:57:30.746Z,615
2016-07-29T13:58:30.750Z,600
2016-07-29T13:59:30.784Z,610
2016-07-29T14:00:30.772Z,625
2016-07-29T14:01:30.772Z,635
2016-07-29T14:03:46.720Z,625
2016-07-29T14:05:32.069Z,630
2016-07-29T14:06:46.441Z,620
2016-07-29T14:07:30.832Z,560
2016-07-29T14:08:30.988Z,495
2016-07-29T14:09:30.837Z,440
2016-07-29T14:10:30.854Z,375
2016-07-29T14:11:47.136Z,345
2016-07-29T14:12:46.790Z,335
2016-07-29T14:13:46.646Z,330
2016-07-29T14:14:31.148Z,335
2016-07-29T14:15:45.814Z,370
2016-07-29T14:16:31.763Z,405
2016-07-29T14:17:30.930Z,395
2016-07-29T14:18:30.927Z,375
2016-07-29T14:19:30.933Z,425
2016-07-29T14:20:30.937Z,450
2016-07-29T14:21:30.945Z,445
2016-07-29T14:22:30.955Z,445
2016-07-29T14:23:31.652Z,455
2016-07-29T14:24:30.981Z,435
2016-07-29T14:25:30.977Z,425
2016-07-29T14:26:30.980Z,415
2016-07-29T14:27:31.008Z,435
2016-07-29T14:28:31.005Z,440
2016-07-29T14:29:31.019Z,385
2016-07-29T14:30:31.021Z,335
2016-07-29T14:31:31.034Z,305
2016-07-29T14:32:31.034Z,280
2016-07-29T14:33:31.040Z,260
2016-07-29T14:34:31.049Z,255
2016-07-29T14:35:31.063Z,265
2016-07-29T14:36:31.067Z,280
2016-07-29T14:37:31.071Z,280
2016-07-29T14:38:31.088Z,260
2016-07-29T14:39:31.099Z,260
2016-07-29T14:40:31.091Z,265
2016-07-29T14:41:31.101Z,270